sensor_id;sensor_type;location;lat;lon;timestamp;temperature;humidity
13268;DHT22;6702;47.068;15.458;2023-07-09T00:02:51;22.00;99.40
13268;DHT22;6702;47.068;15.458;2023-07-09T00:05:55;22.00;99.00
13268;DHT22;6702;47.068;15.458;2023-07-09T00:08:58;21.90;98.90
13268;DHT22;6702;47.068;15.458;2023-07-09T00:12:02;21.90;99.10
13268;DHT22;6702;47.068;15.458;2023-07-09T00:15:06;21.90;99.20
13268;DHT22;6702;47.068;15.458;2023-07-09T00:18:11;21.90;99.30
13268;DHT22;6702;47.068;15.458;2023-07-09T00:21:16;21.90;99.30
13268;DHT22;6702;47.068;15.458;2023-07-09T00:24:20;21.90;99.40
13268;DHT22;6702;47.068;15.458;2023-07-09T00:27:26;21.90;99.50
13268;DHT22;6702;47.068;15.458;2023-07-09T00:30:30;21.80;99.50
13268;DHT22;6702;47.068;15.458;2023-07-09T00:33:33;21.80;99.80
13268;DHT22;6702;47.068;15.458;2023-07-09T00:36:38;21.70;99.90
13268;DHT22;6702;47.068;15.458;2023-07-09T00:39:42;21.70;99.90
13268;DHT22;6702;47.068;15.458;2023-07-09T00:42:47;21.70;99.90
13268;DHT22;6702;47.068;15.458;2023-07-09T00:46:09;21.70;99.90
13268;DHT22;6702;47.068;15.458;2023-07-09T00:49:26;21.70;99.90
13268;DHT22;6702;47.068;15.458;2023-07-09T00:52:36;21.70;99.90
13268;DHT22;6702;47.068;15.458;2023-07-09T00:55:42;21.60;99.90
13268;DHT22;6702;47.068;15.458;2023-07-09T00:58:47;21.60;99.90
13268;DHT22;6702;47.068;15.458;2023-07-09T01:01:53;21.60;99.90
13268;DHT22;6702;47.068;15.458;2023-07-09T01:04:59;21.50;99.90
13268;DHT22;6702;47.068;15.458;2023-07-09T01:08:06;21.50;99.90
13268;DHT22;6702;47.068;15.458;2023-07-09T01:11:17;21.50;99.90
13268;DHT22;6702;47.068;15.458;2023-07-09T01:14:24;21.40;99.90
13268;DHT22;6702;47.068;15.458;2023-07-09T01:17:28;21.40;99.90
13268;DHT22;6702;47.068;15.458;2023-07-09T01:20:32;21.40;99.90
13268;DHT22;6702;47.068;15.458;2023-07-09T01:23:36;21.40;99.90
13268;DHT22;6702;47.068;15.458;2023-07-09T01:26:40;21.40;99.90
13268;DHT22;6702;47.068;15.458;2023-07-09T01:29:45;21.30;99.90
13268;DHT22;6702;47.068;15.458;2023-07-09T01:32:51;21.20;99.90
13268;DHT22;6702;47.068;15.458;2023-07-09T01:35:58;21.30;99.90
13268;DHT22;6702;47.068;15.458;2023-07-09T01:39:04;21.20;99.90
13268;DHT22;6702;47.068;15.458;2023-07-09T01:42:07;21.20;99.90
13268;DHT22;6702;47.068;15.458;2023-07-09T01:45:11;21.20;99.90
13268;DHT22;6702;47.068;15.458;2023-07-09T01:48:15;21.20;99.90
13268;DHT22;6702;47.068;15.458;2023-07-09T01:51:19;21.10;99.90
13268;DHT22;6702;47.068;15.458;2023-07-09T01:54:23;21.10;99.90
13268;DHT22;6702;47.068;15.458;2023-07-09T01:57:28;21.10;99.90
13268;DHT22;6702;47.068;15.458;2023-07-09T02:00:35;21.10;99.90
13268;DHT22;6702;47.068;15.458;2023-07-09T02:03:38;21.00;99.90
13268;DHT22;6702;47.068;15.458;2023-07-09T02:06:41;21.00;99.90
13268;DHT22;6702;47.068;15.458;2023-07-09T02:09:46;20.90;99.90
13268;DHT22;6702;47.068;15.458;2023-07-09T02:12:49;20.90;99.90
13268;DHT22;6702;47.068;15.458;2023-07-09T02:15:52;20.90;99.90
13268;DHT22;6702;47.068;15.458;2023-07-09T02:18:56;20.80;99.90
13268;DHT22;6702;47.068;15.458;2023-07-09T02:21:59;20.80;99.90
13268;DHT22;6702;47.068;15.458;2023-07-09T02:25:05;20.70;99.90
13268;DHT22;6702;47.068;15.458;2023-07-09T02:28:08;20.70;99.90
13268;DHT22;6702;47.068;15.458;2023-07-09T02:31:11;20.60;99.90
13268;DHT22;6702;47.068;15.458;2023-07-09T02:34:17;20.60;99.90
13268;DHT22;6702;47.068;15.458;2023-07-09T02:37:23;20.70;99.90
13268;DHT22;6702;47.068;15.458;2023-07-09T02:40:28;20.60;99.90
13268;DHT22;6702;47.068;15.458;2023-07-09T02:43:31;20.60;99.90
13268;DHT22;6702;47.068;15.458;2023-07-09T02:46:35;20.50;99.90
13268;DHT22;6702;47.068;15.458;2023-07-09T02:49:39;20.50;99.90
13268;DHT22;6702;47.068;15.458;2023-07-09T02:52:42;20.50;99.90
13268;DHT22;6702;47.068;15.458;2023-07-09T02:55:47;20.60;99.90
13268;DHT22;6702;47.068;15.458;2023-07-09T02:58:51;20.60;99.90
13268;DHT22;6702;47.068;15.458;2023-07-09T03:01:54;20.50;99.90
13268;DHT22;6702;47.068;15.458;2023-07-09T03:04:57;20.60;99.90
13268;DHT22;6702;47.068;15.458;2023-07-09T03:08:01;20.50;99.90
13268;DHT22;6702;47.068;15.458;2023-07-09T03:11:11;20.60;99.90
13268;DHT22;6702;47.068;15.458;2023-07-09T03:14:15;20.50;99.90
13268;DHT22;6702;47.068;15.458;2023-07-09T03:17:18;20.50;99.90
13268;DHT22;6702;47.068;15.458;2023-07-09T03:20:21;20.40;99.90
13268;DHT22;6702;47.068;15.458;2023-07-09T03:23:25;20.50;99.90
13268;DHT22;6702;47.068;15.458;2023-07-09T03:26:30;20.40;99.90
13268;DHT22;6702;47.068;15.458;2023-07-09T03:29:33;20.40;99.90
13268;DHT22;6702;47.068;15.458;2023-07-09T03:32:36;20.40;99.90
13268;DHT22;6702;47.068;15.458;2023-07-09T03:35:40;20.40;99.90
13268;DHT22;6702;47.068;15.458;2023-07-09T03:38:43;20.40;99.90
13268;DHT22;6702;47.068;15.458;2023-07-09T03:41:48;20.40;99.90
13268;DHT22;6702;47.068;15.458;2023-07-09T03:44:51;20.40;99.90
13268;DHT22;6702;47.068;15.458;2023-07-09T03:47:54;20.40;99.90
13268;DHT22;6702;47.068;15.458;2023-07-09T03:50:58;20.40;99.90
13268;DHT22;6702;47.068;15.458;2023-07-09T03:54:01;20.50;99.90
13268;DHT22;6702;47.068;15.458;2023-07-09T03:57:06;20.50;99.90
13268;DHT22;6702;47.068;15.458;2023-07-09T04:00:10;20.50;99.90
13268;DHT22;6702;47.068;15.458;2023-07-09T04:03:14;20.60;99.90
13268;DHT22;6702;47.068;15.458;2023-07-09T04:06:17;20.60;99.90
13268;DHT22;6702;47.068;15.458;2023-07-09T04:09:20;20.60;99.90
13268;DHT22;6702;47.068;15.458;2023-07-09T04:12:25;20.70;99.90
13268;DHT22;6702;47.068;15.458;2023-07-09T04:15:28;20.80;99.90
13268;DHT22;6702;47.068;15.458;2023-07-09T04:18:32;20.90;99.90
13268;DHT22;6702;47.068;15.458;2023-07-09T04:21:35;21.00;99.90
13268;DHT22;6702;47.068;15.458;2023-07-09T04:24:38;21.10;99.90
13268;DHT22;6702;47.068;15.458;2023-07-09T04:27:43;21.20;99.90
13268;DHT22;6702;47.068;15.458;2023-07-09T04:30:47;21.40;99.90
13268;DHT22;6702;47.068;15.458;2023-07-09T04:33:51;21.50;99.90
13268;DHT22;6702;47.068;15.458;2023-07-09T04:36:55;21.70;99.90
13268;DHT22;6702;47.068;15.458;2023-07-09T04:39:58;21.80;99.90
13268;DHT22;6702;47.068;15.458;2023-07-09T04:43:03;21.90;99.90
13268;DHT22;6702;47.068;15.458;2023-07-09T04:46:07;22.10;99.90
13268;DHT22;6702;47.068;15.458;2023-07-09T04:49:10;22.20;99.90
13268;DHT22;6702;47.068;15.458;2023-07-09T04:52:14;22.40;99.90
13268;DHT22;6702;47.068;15.458;2023-07-09T04:55:17;22.60;99.90
13268;DHT22;6702;47.068;15.458;2023-07-09T04:58:22;22.80;99.90
13268;DHT22;6702;47.068;15.458;2023-07-09T05:01:26;22.90;99.90
13268;DHT22;6702;47.068;15.458;2023-07-09T05:04:29;23.10;99.90
13268;DHT22;6702;47.068;15.458;2023-07-09T05:07:32;23.30;99.90
13268;DHT22;6702;47.068;15.458;2023-07-09T05:10:41;23.20;99.90
13268;DHT22;6702;47.068;15.458;2023-07-09T05:13:45;23.10;99.90
13268;DHT22;6702;47.068;15.458;2023-07-09T05:16:48;23.00;99.90
13268;DHT22;6702;47.068;15.458;2023-07-09T05:19:51;22.90;99.90
13268;DHT22;6702;47.068;15.458;2023-07-09T05:22:55;22.90;99.90
13268;DHT22;6702;47.068;15.458;2023-07-09T05:25:58;22.90;99.90
13268;DHT22;6702;47.068;15.458;2023-07-09T05:29:04;22.80;99.90
13268;DHT22;6702;47.068;15.458;2023-07-09T05:32:08;22.90;99.90
13268;DHT22;6702;47.068;15.458;2023-07-09T05:35:11;22.90;99.90
13268;DHT22;6702;47.068;15.458;2023-07-09T05:38:14;23.00;99.90
13268;DHT22;6702;47.068;15.458;2023-07-09T05:41:18;23.20;99.90
13268;DHT22;6702;47.068;15.458;2023-07-09T05:44:22;23.40;99.90
13268;DHT22;6702;47.068;15.458;2023-07-09T05:47:26;23.50;99.90
13268;DHT22;6702;47.068;15.458;2023-07-09T05:50:29;23.70;99.80
13268;DHT22;6702;47.068;15.458;2023-07-09T05:53:32;23.80;99.40
13268;DHT22;6702;47.068;15.458;2023-07-09T05:56:35;23.80;99.90
13268;DHT22;6702;47.068;15.458;2023-07-09T05:59:40;24.00;99.90
13268;DHT22;6702;47.068;15.458;2023-07-09T06:02:43;24.20;99.90
13268;DHT22;6702;47.068;15.458;2023-07-09T06:05:47;24.40;99.80
13268;DHT22;6702;47.068;15.458;2023-07-09T06:08:51;24.60;99.50
13268;DHT22;6702;47.068;15.458;2023-07-09T06:11:56;24.80;99.40
13268;DHT22;6702;47.068;15.458;2023-07-09T06:15:00;25.10;99.10
13268;DHT22;6702;47.068;15.458;2023-07-09T06:18:04;25.50;98.40
13268;DHT22;6702;47.068;15.458;2023-07-09T06:21:08;26.00;97.60
13268;DHT22;6702;47.068;15.458;2023-07-09T06:24:13;26.60;96.70
13268;DHT22;6702;47.068;15.458;2023-07-09T06:27:16;27.10;95.40
13268;DHT22;6702;47.068;15.458;2023-07-09T06:30:21;27.40;94.10
13268;DHT22;6702;47.068;15.458;2023-07-09T06:33:26;27.80;92.60
13268;DHT22;6702;47.068;15.458;2023-07-09T06:36:30;28.30;91.70
13268;DHT22;6702;47.068;15.458;2023-07-09T06:39:33;28.60;90.80
13268;DHT22;6702;47.068;15.458;2023-07-09T06:42:36;29.10;90.30
13268;DHT22;6702;47.068;15.458;2023-07-09T06:45:50;29.80;86.40
13268;DHT22;6702;47.068;15.458;2023-07-09T06:48:53;30.20;82.50
13268;DHT22;6702;47.068;15.458;2023-07-09T06:51:56;30.70;80.70
13268;DHT22;6702;47.068;15.458;2023-07-09T06:54:59;31.20;78.90
13268;DHT22;6702;47.068;15.458;2023-07-09T06:58:03;31.50;74.70
13268;DHT22;6702;47.068;15.458;2023-07-09T07:01:08;31.80;74.80
13268;DHT22;6702;47.068;15.458;2023-07-09T07:04:13;32.40;72.10
13268;DHT22;6702;47.068;15.458;2023-07-09T07:07:17;33.20;68.70
13268;DHT22;6702;47.068;15.458;2023-07-09T07:10:20;33.60;65.60
13268;DHT22;6702;47.068;15.458;2023-07-09T07:13:23;34.30;62.90
13268;DHT22;6702;47.068;15.458;2023-07-09T07:16:31;34.80;60.90
13268;DHT22;6702;47.068;15.458;2023-07-09T07:19:34;35.30;59.40
13268;DHT22;6702;47.068;15.458;2023-07-09T07:22:38;35.90;57.10
13268;DHT22;6702;47.068;15.458;2023-07-09T07:25:41;36.50;54.70
13268;DHT22;6702;47.068;15.458;2023-07-09T07:28:45;37.00;53.40
13268;DHT22;6702;47.068;15.458;2023-07-09T07:31:50;37.70;51.40
13268;DHT22;6702;47.068;15.458;2023-07-09T07:34:53;38.30;49.80
13268;DHT22;6702;47.068;15.458;2023-07-09T07:37:57;38.90;47.50
13268;DHT22;6702;47.068;15.458;2023-07-09T07:41:00;39.50;47.10
13268;DHT22;6702;47.068;15.458;2023-07-09T07:44:04;40.20;45.30
13268;DHT22;6702;47.068;15.458;2023-07-09T07:47:09;40.90;43.40
13268;DHT22;6702;47.068;15.458;2023-07-09T07:50:17;41.10;41.50
13268;DHT22;6702;47.068;15.458;2023-07-09T07:53:21;41.10;40.80
13268;DHT22;6702;47.068;15.458;2023-07-09T07:56:24;40.90;40.40
13268;DHT22;6702;47.068;15.458;2023-07-09T07:59:29;40.50;40.10
13268;DHT22;6702;47.068;15.458;2023-07-09T08:02:35;39.70;41.60
13268;DHT22;6702;47.068;15.458;2023-07-09T08:05:39;38.90;42.80
13268;DHT22;6702;47.068;15.458;2023-07-09T08:08:42;38.20;43.40
13268;DHT22;6702;47.068;15.458;2023-07-09T08:11:45;37.40;44.80
13268;DHT22;6702;47.068;15.458;2023-07-09T08:14:48;37.00;46.00
13268;DHT22;6702;47.068;15.458;2023-07-09T08:17:53;36.50;46.80
13268;DHT22;6702;47.068;15.458;2023-07-09T08:20:59;36.10;47.70
13268;DHT22;6702;47.068;15.458;2023-07-09T08:24:03;35.70;48.20
13268;DHT22;6702;47.068;15.458;2023-07-09T08:27:08;35.30;48.60
13268;DHT22;6702;47.068;15.458;2023-07-09T08:30:12;34.80;50.00
13268;DHT22;6702;47.068;15.458;2023-07-09T08:33:16;34.40;51.60
13268;DHT22;6702;47.068;15.458;2023-07-09T08:36:20;34.10;52.60
13268;DHT22;6702;47.068;15.458;2023-07-09T08:39:23;33.50;52.90
13268;DHT22;6702;47.068;15.458;2023-07-09T08:42:29;33.20;54.40
13268;DHT22;6702;47.068;15.458;2023-07-09T08:45:47;33.10;54.20
13268;DHT22;6702;47.068;15.458;2023-07-09T08:48:54;33.00;54.70
13268;DHT22;6702;47.068;15.458;2023-07-09T08:51:58;33.00;54.80
13268;DHT22;6702;47.068;15.458;2023-07-09T08:55:05;33.10;54.50
13268;DHT22;6702;47.068;15.458;2023-07-09T08:58:12;33.10;54.40
13268;DHT22;6702;47.068;15.458;2023-07-09T09:01:19;33.00;55.60
13268;DHT22;6702;47.068;15.458;2023-07-09T09:04:27;33.00;55.90
13268;DHT22;6702;47.068;15.458;2023-07-09T09:07:41;32.90;55.70
13268;DHT22;6702;47.068;15.458;2023-07-09T09:10:48;32.60;55.50
13268;DHT22;6702;47.068;15.458;2023-07-09T09:13:55;32.60;56.00
13268;DHT22;6702;47.068;15.458;2023-07-09T09:16:59;32.70;55.50
13268;DHT22;6702;47.068;15.458;2023-07-09T09:20:09;32.80;55.10
13268;DHT22;6702;47.068;15.458;2023-07-09T09:23:14;32.70;54.30
13268;DHT22;6702;47.068;15.458;2023-07-09T09:26:23;32.90;54.80
13268;DHT22;6702;47.068;15.458;2023-07-09T09:29:27;32.80;54.50
13268;DHT22;6702;47.068;15.458;2023-07-09T09:32:43;32.70;54.10
13268;DHT22;6702;47.068;15.458;2023-07-09T09:35:48;32.80;53.60
13268;DHT22;6702;47.068;15.458;2023-07-09T09:38:52;33.00;53.20
13268;DHT22;6702;47.068;15.458;2023-07-09T09:41:57;33.10;52.70
13268;DHT22;6702;47.068;15.458;2023-07-09T09:45:01;33.20;52.00
13268;DHT22;6702;47.068;15.458;2023-07-09T09:48:14;33.20;53.10
13268;DHT22;6702;47.068;15.458;2023-07-09T09:51:19;33.30;53.80
13268;DHT22;6702;47.068;15.458;2023-07-09T09:54:26;33.50;52.10
13268;DHT22;6702;47.068;15.458;2023-07-09T09:57:31;33.40;49.90
13268;DHT22;6702;47.068;15.458;2023-07-09T10:00:34;33.40;49.70
13268;DHT22;6702;47.068;15.458;2023-07-09T10:03:38;33.30;52.10
13268;DHT22;6702;47.068;15.458;2023-07-09T10:06:47;33.30;52.00
13268;DHT22;6702;47.068;15.458;2023-07-09T10:09:53;33.10;53.00
13268;DHT22;6702;47.068;15.458;2023-07-09T10:13:01;33.00;53.50
13268;DHT22;6702;47.068;15.458;2023-07-09T10:16:10;33.20;52.50
13268;DHT22;6702;47.068;15.458;2023-07-09T10:19:19;33.40;51.00
13268;DHT22;6702;47.068;15.458;2023-07-09T10:22:39;33.50;48.80
13268;DHT22;6702;47.068;15.458;2023-07-09T10:25:48;33.50;49.70
13268;DHT22;6702;47.068;15.458;2023-07-09T10:29:14;33.50;51.50
13268;DHT22;6702;47.068;15.458;2023-07-09T10:32:34;33.60;51.60
13268;DHT22;6702;47.068;15.458;2023-07-09T10:35:50;33.50;49.30
13268;DHT22;6702;47.068;15.458;2023-07-09T10:39:02;33.70;49.20
13268;DHT22;6702;47.068;15.458;2023-07-09T10:42:11;33.80;48.70
13268;DHT22;6702;47.068;15.458;2023-07-09T10:45:20;33.70;49.10
13268;DHT22;6702;47.068;15.458;2023-07-09T10:48:33;33.90;50.00
13268;DHT22;6702;47.068;15.458;2023-07-09T10:51:39;33.80;50.60
13268;DHT22;6702;47.068;15.458;2023-07-09T10:54:52;33.80;50.10
13268;DHT22;6702;47.068;15.458;2023-07-09T10:58:02;33.70;48.90
13268;DHT22;6702;47.068;15.458;2023-07-09T11:01:05;33.90;48.70
13268;DHT22;6702;47.068;15.458;2023-07-09T11:04:13;34.10;48.40
13268;DHT22;6702;47.068;15.458;2023-07-09T11:07:22;34.00;48.80
13268;DHT22;6702;47.068;15.458;2023-07-09T11:10:29;34.00;48.60
13268;DHT22;6702;47.068;15.458;2023-07-09T11:13:37;34.10;48.60
13268;DHT22;6702;47.068;15.458;2023-07-09T11:16:55;34.00;47.60
13268;DHT22;6702;47.068;15.458;2023-07-09T11:20:06;34.10;47.10
13268;DHT22;6702;47.068;15.458;2023-07-09T11:23:18;34.10;46.90
13268;DHT22;6702;47.068;15.458;2023-07-09T11:26:24;34.00;48.10
13268;DHT22;6702;47.068;15.458;2023-07-09T11:29:28;34.00;48.50
13268;DHT22;6702;47.068;15.458;2023-07-09T11:32:32;34.10;48.70
13268;DHT22;6702;47.068;15.458;2023-07-09T11:35:45;34.00;48.40
13268;DHT22;6702;47.068;15.458;2023-07-09T11:38:49;34.20;47.90
13268;DHT22;6702;47.068;15.458;2023-07-09T11:41:54;34.20;47.10
13268;DHT22;6702;47.068;15.458;2023-07-09T11:45:09;34.20;47.00
13268;DHT22;6702;47.068;15.458;2023-07-09T11:48:25;34.30;45.60
13268;DHT22;6702;47.068;15.458;2023-07-09T11:51:44;33.80;46.10
13268;DHT22;6702;47.068;15.458;2023-07-09T11:54:48;33.70;46.80
13268;DHT22;6702;47.068;15.458;2023-07-09T11:57:55;33.70;47.00
13268;DHT22;6702;47.068;15.458;2023-07-09T12:01:00;33.90;46.90
13268;DHT22;6702;47.068;15.458;2023-07-09T12:04:04;34.10;47.20
13268;DHT22;6702;47.068;15.458;2023-07-09T12:07:12;34.20;46.60
13268;DHT22;6702;47.068;15.458;2023-07-09T12:10:22;34.30;45.90
13268;DHT22;6702;47.068;15.458;2023-07-09T12:13:27;33.80;45.70
13268;DHT22;6702;47.068;15.458;2023-07-09T12:16:33;34.00;45.70
13268;DHT22;6702;47.068;15.458;2023-07-09T12:19:39;33.90;45.40
13268;DHT22;6702;47.068;15.458;2023-07-09T12:22:42;33.80;46.90
13268;DHT22;6702;47.068;15.458;2023-07-09T12:25:48;33.60;48.50
13268;DHT22;6702;47.068;15.458;2023-07-09T12:28:54;33.50;49.30
13268;DHT22;6702;47.068;15.458;2023-07-09T12:31:58;33.60;48.40
13268;DHT22;6702;47.068;15.458;2023-07-09T12:35:02;33.60;48.20
13268;DHT22;6702;47.068;15.458;2023-07-09T12:38:17;33.60;48.80
13268;DHT22;6702;47.068;15.458;2023-07-09T12:41:24;33.50;49.80
13268;DHT22;6702;47.068;15.458;2023-07-09T12:44:33;33.70;49.90
13268;DHT22;6702;47.068;15.458;2023-07-09T12:47:38;33.80;48.80
13268;DHT22;6702;47.068;15.458;2023-07-09T12:50:41;34.00;48.10
13268;DHT22;6702;47.068;15.458;2023-07-09T12:53:44;34.10;48.00
13268;DHT22;6702;47.068;15.458;2023-07-09T12:56:50;34.00;47.70
13268;DHT22;6702;47.068;15.458;2023-07-09T12:59:56;33.50;47.50
13268;DHT22;6702;47.068;15.458;2023-07-09T13:03:00;33.50;48.50
13268;DHT22;6702;47.068;15.458;2023-07-09T13:06:05;33.40;48.70
13268;DHT22;6702;47.068;15.458;2023-07-09T13:09:16;33.20;48.70
13268;DHT22;6702;47.068;15.458;2023-07-09T13:12:28;32.80;49.20
13268;DHT22;6702;47.068;15.458;2023-07-09T13:15:41;32.90;49.30
13268;DHT22;6702;47.068;15.458;2023-07-09T13:18:44;32.50;49.10
13268;DHT22;6702;47.068;15.458;2023-07-09T13:21:48;32.60;49.00
13268;DHT22;6702;47.068;15.458;2023-07-09T13:24:53;32.90;49.10
13268;DHT22;6702;47.068;15.458;2023-07-09T13:27:56;33.00;48.40
13268;DHT22;6702;47.068;15.458;2023-07-09T13:31:07;33.10;47.70
13268;DHT22;6702;47.068;15.458;2023-07-09T13:34:18;33.20;47.70
13268;DHT22;6702;47.068;15.458;2023-07-09T13:37:22;32.90;47.60
13268;DHT22;6702;47.068;15.458;2023-07-09T13:40:25;32.50;49.40
13268;DHT22;6702;47.068;15.458;2023-07-09T13:43:32;32.30;49.50
13268;DHT22;6702;47.068;15.458;2023-07-09T13:46:37;32.30;50.00
13268;DHT22;6702;47.068;15.458;2023-07-09T13:49:40;32.30;50.30
13268;DHT22;6702;47.068;15.458;2023-07-09T13:52:44;32.40;49.70
13268;DHT22;6702;47.068;15.458;2023-07-09T13:55:49;32.50;51.20
13268;DHT22;6702;47.068;15.458;2023-07-09T13:58:52;32.60;50.40
13268;DHT22;6702;47.068;15.458;2023-07-09T14:01:58;32.40;51.70
13268;DHT22;6702;47.068;15.458;2023-07-09T14:05:04;32.30;50.80
13268;DHT22;6702;47.068;15.458;2023-07-09T14:08:08;32.20;50.90
13268;DHT22;6702;47.068;15.458;2023-07-09T14:11:14;32.20;51.10
13268;DHT22;6702;47.068;15.458;2023-07-09T14:14:20;32.10;50.90
13268;DHT22;6702;47.068;15.458;2023-07-09T14:17:25;32.10;50.40
13268;DHT22;6702;47.068;15.458;2023-07-09T14:20:28;32.10;51.60
13268;DHT22;6702;47.068;15.458;2023-07-09T14:23:31;32.10;51.00
13268;DHT22;6702;47.068;15.458;2023-07-09T14:26:34;32.10;50.40
13268;DHT22;6702;47.068;15.458;2023-07-09T14:29:38;32.10;50.30
13268;DHT22;6702;47.068;15.458;2023-07-09T14:32:43;32.20;50.40
13268;DHT22;6702;47.068;15.458;2023-07-09T14:35:48;32.30;50.00
13268;DHT22;6702;47.068;15.458;2023-07-09T14:38:52;32.50;49.80
13268;DHT22;6702;47.068;15.458;2023-07-09T14:41:56;32.50;49.90
13268;DHT22;6702;47.068;15.458;2023-07-09T14:45:02;32.40;49.80
13268;DHT22;6702;47.068;15.458;2023-07-09T14:48:10;32.40;50.60
13268;DHT22;6702;47.068;15.458;2023-07-09T14:51:15;32.40;49.60
13268;DHT22;6702;47.068;15.458;2023-07-09T14:54:21;32.10;50.10
13268;DHT22;6702;47.068;15.458;2023-07-09T14:57:26;32.00;50.60
13268;DHT22;6702;47.068;15.458;2023-07-09T15:00:31;32.00;50.30
13268;DHT22;6702;47.068;15.458;2023-07-09T15:03:36;31.90;50.70
13268;DHT22;6702;47.068;15.458;2023-07-09T15:06:39;32.00;50.70
13268;DHT22;6702;47.068;15.458;2023-07-09T15:09:42;32.10;50.90
13268;DHT22;6702;47.068;15.458;2023-07-09T15:12:46;32.10;50.10
13268;DHT22;6702;47.068;15.458;2023-07-09T15:15:49;32.10;50.40
13268;DHT22;6702;47.068;15.458;2023-07-09T15:18:54;32.10;50.90
13268;DHT22;6702;47.068;15.458;2023-07-09T15:21:57;32.30;50.80
13268;DHT22;6702;47.068;15.458;2023-07-09T15:25:01;32.30;50.80
13268;DHT22;6702;47.068;15.458;2023-07-09T15:28:04;32.40;50.90
13268;DHT22;6702;47.068;15.458;2023-07-09T15:31:10;32.30;50.20
13268;DHT22;6702;47.068;15.458;2023-07-09T15:34:15;32.30;50.50
13268;DHT22;6702;47.068;15.458;2023-07-09T15:37:19;32.30;50.40
13268;DHT22;6702;47.068;15.458;2023-07-09T15:40:26;32.30;50.30
13268;DHT22;6702;47.068;15.458;2023-07-09T15:43:30;32.30;50.10
13268;DHT22;6702;47.068;15.458;2023-07-09T15:46:34;32.10;50.00
13268;DHT22;6702;47.068;15.458;2023-07-09T15:49:38;32.00;50.60
13268;DHT22;6702;47.068;15.458;2023-07-09T15:52:43;32.00;50.50
13268;DHT22;6702;47.068;15.458;2023-07-09T15:55:46;32.00;51.40
13268;DHT22;6702;47.068;15.458;2023-07-09T15:58:51;32.10;51.50
13268;DHT22;6702;47.068;15.458;2023-07-09T16:01:54;32.10;51.00
13268;DHT22;6702;47.068;15.458;2023-07-09T16:04:59;32.00;51.10
13268;DHT22;6702;47.068;15.458;2023-07-09T16:08:03;32.00;51.20
13268;DHT22;6702;47.068;15.458;2023-07-09T16:11:14;32.10;51.60
13268;DHT22;6702;47.068;15.458;2023-07-09T16:14:22;32.10;51.60
13268;DHT22;6702;47.068;15.458;2023-07-09T16:17:26;32.00;51.10
13268;DHT22;6702;47.068;15.458;2023-07-09T16:20:30;32.00;51.50
13268;DHT22;6702;47.068;15.458;2023-07-09T16:23:34;32.00;51.20
13268;DHT22;6702;47.068;15.458;2023-07-09T16:26:37;32.00;51.00
13268;DHT22;6702;47.068;15.458;2023-07-09T16:29:40;31.90;51.00
13268;DHT22;6702;47.068;15.458;2023-07-09T16:32:44;31.90;51.20
13268;DHT22;6702;47.068;15.458;2023-07-09T16:35:50;31.70;51.20
13268;DHT22;6702;47.068;15.458;2023-07-09T16:38:54;31.60;51.80
13268;DHT22;6702;47.068;15.458;2023-07-09T16:41:58;31.70;52.50
13268;DHT22;6702;47.068;15.458;2023-07-09T16:45:02;31.50;53.10
13268;DHT22;6702;47.068;15.458;2023-07-09T16:48:12;31.40;53.90
13268;DHT22;6702;47.068;15.458;2023-07-09T16:51:17;31.30;53.80
13268;DHT22;6702;47.068;15.458;2023-07-09T16:54:21;31.20;54.30
13268;DHT22;6702;47.068;15.458;2023-07-09T16:57:26;31.10;54.80
13268;DHT22;6702;47.068;15.458;2023-07-09T17:00:32;30.90;54.80
13268;DHT22;6702;47.068;15.458;2023-07-09T17:03:37;31.00;55.30
13268;DHT22;6702;47.068;15.458;2023-07-09T17:06:43;30.90;55.50
13268;DHT22;6702;47.068;15.458;2023-07-09T17:09:46;30.80;55.60
13268;DHT22;6702;47.068;15.458;2023-07-09T17:12:54;30.50;56.70
13268;DHT22;6702;47.068;15.458;2023-07-09T17:15:57;30.30;56.80
13268;DHT22;6702;47.068;15.458;2023-07-09T17:19:00;30.20;57.10
13268;DHT22;6702;47.068;15.458;2023-07-09T17:22:14;30.00;57.20
13268;DHT22;6702;47.068;15.458;2023-07-09T17:25:24;29.90;57.40
13268;DHT22;6702;47.068;15.458;2023-07-09T17:28:30;30.00;57.80
13268;DHT22;6702;47.068;15.458;2023-07-09T17:31:34;30.10;57.80
13268;DHT22;6702;47.068;15.458;2023-07-09T17:34:37;30.10;57.80
13268;DHT22;6702;47.068;15.458;2023-07-09T17:37:45;30.10;58.30
13268;DHT22;6702;47.068;15.458;2023-07-09T17:40:50;30.00;58.60
13268;DHT22;6702;47.068;15.458;2023-07-09T17:43:53;30.00;59.00
13268;DHT22;6702;47.068;15.458;2023-07-09T17:46:57;30.00;58.90
13268;DHT22;6702;47.068;15.458;2023-07-09T17:50:00;29.90;59.00
13268;DHT22;6702;47.068;15.458;2023-07-09T17:53:14;29.80;58.90
13268;DHT22;6702;47.068;15.458;2023-07-09T17:56:21;29.60;58.90
13268;DHT22;6702;47.068;15.458;2023-07-09T17:59:27;29.60;59.00
13268;DHT22;6702;47.068;15.458;2023-07-09T18:02:35;29.50;59.00
13268;DHT22;6702;47.068;15.458;2023-07-09T18:05:42;29.60;59.20
13268;DHT22;6702;47.068;15.458;2023-07-09T18:08:47;29.50;59.80
13268;DHT22;6702;47.068;15.458;2023-07-09T18:11:53;29.50;59.50
13268;DHT22;6702;47.068;15.458;2023-07-09T18:14:58;29.50;59.70
13268;DHT22;6702;47.068;15.458;2023-07-09T18:18:02;29.50;59.90
13268;DHT22;6702;47.068;15.458;2023-07-09T18:21:11;29.40;59.90
13268;DHT22;6702;47.068;15.458;2023-07-09T18:24:17;29.30;60.20
13268;DHT22;6702;47.068;15.458;2023-07-09T18:27:23;29.20;60.30
13268;DHT22;6702;47.068;15.458;2023-07-09T18:30:30;29.10;60.70
13268;DHT22;6702;47.068;15.458;2023-07-09T18:33:34;29.10;60.80
13268;DHT22;6702;47.068;15.458;2023-07-09T18:36:38;29.00;61.60
13268;DHT22;6702;47.068;15.458;2023-07-09T18:39:44;28.90;61.90
13268;DHT22;6702;47.068;15.458;2023-07-09T18:42:48;28.90;62.30
13268;DHT22;6702;47.068;15.458;2023-07-09T18:45:52;28.80;62.50
13268;DHT22;6702;47.068;15.458;2023-07-09T18:48:57;28.80;63.00
13268;DHT22;6702;47.068;15.458;2023-07-09T18:52:00;28.70;63.60
13268;DHT22;6702;47.068;15.458;2023-07-09T18:55:15;28.70;64.40
13268;DHT22;6702;47.068;15.458;2023-07-09T18:58:20;28.60;65.30
13268;DHT22;6702;47.068;15.458;2023-07-09T19:01:24;28.60;65.20
13268;DHT22;6702;47.068;15.458;2023-07-09T19:04:28;28.60;65.90
13268;DHT22;6702;47.068;15.458;2023-07-09T19:07:33;28.50;66.80
13268;DHT22;6702;47.068;15.458;2023-07-09T19:10:38;28.40;67.30
13268;DHT22;6702;47.068;15.458;2023-07-09T19:13:41;28.40;68.80
13268;DHT22;6702;47.068;15.458;2023-07-09T19:16:47;28.40;70.10
13268;DHT22;6702;47.068;15.458;2023-07-09T19:19:51;28.30;72.30
13268;DHT22;6702;47.068;15.458;2023-07-09T19:22:55;28.20;73.90
13268;DHT22;6702;47.068;15.458;2023-07-09T19:25:59;28.10;75.00
13268;DHT22;6702;47.068;15.458;2023-07-09T19:29:03;28.00;75.90
13268;DHT22;6702;47.068;15.458;2023-07-09T19:32:17;28.00;76.70